Time;durP1;ratioP1;P1;durP2;ratioP2;P2;SDS_P1;SDS_P2;PMS_P1;PMS_P2;Temp;Humidity;BMP_temperature;BMP_pressure;BME280_temperature;BME280_humidity;BME280_pressure;Samples;Min_cycle;Max_cycle;Signal;HPM_P1;HPM_P2
2023/01/14 00:01:57;;;;;;;4.95;0.98;;;;;;;6.69;80.70;99772.38;10507045;28;20085;-70
2023/01/14 00:06:59;;;;;;;3.85;0.90;;;;;;;6.75;79.95;99767.88;10485963;28;20063;-71
2023/01/14 00:12:01;;;;;;;3.35;0.90;;;;;;;6.69;80.15;99764.53;10504359;28;20047;-71
2023/01/14 00:17:03;;;;;;;3.47;0.88;;;;;;;6.82;79.12;99771.22;10503719;28;20041;-71
2023/01/14 00:22:05;;;;;;;6.10;1.13;;;;;;;6.82;78.71;99768.63;10487831;28;20115;-71
2023/01/14 00:27:07;;;;;;;4.65;0.82;;;;;;;6.71;79.80;99786.25;10503226;28;20121;-71
2023/01/14 00:32:09;;;;;;;3.42;0.98;;;;;;;6.82;78.60;99779.06;10487617;28;20076;-71
2023/01/14 00:37:10;;;;;;;4.10;0.90;;;;;;;6.75;78.54;99780.06;10483600;28;20044;-71
2023/01/14 00:42:12;;;;;;;5.88;0.98;;;;;;;6.67;78.93;99781.97;10502517;28;20374;-71
2023/01/14 00:47:14;;;;;;;4.88;1.13;;;;;;;6.78;77.18;99780.03;10501765;28;20044;-72
2023/01/14 00:52:15;;;;;;;5.10;1.20;;;;;;;6.61;77.76;99789.94;10501935;28;20492;-72
2023/01/14 00:57:17;;;;;;;3.08;0.90;;;;;;;6.61;77.72;99784.72;10482905;28;20044;-71
2023/01/14 01:02:19;;;;;;;3.63;1.17;;;;;;;6.47;78.11;99795.44;10501639;28;20075;-73
2023/01/14 01:07:21;;;;;;;3.13;0.88;;;;;;;6.53;78.02;99792.69;10503190;28;20043;-72
2023/01/14 01:12:22;;;;;;;3.63;0.90;;;;;;;6.65;77.35;99802.91;10500978;28;20401;-71
2023/01/14 01:17:24;;;;;;;3.08;1.02;;;;;;;6.71;76.46;99797.56;10500942;28;20040;-72
2023/01/14 01:22:28;;;;;;;3.67;1.02;;;;;;;6.72;76.65;99811.47;10500364;28;20119;-72
2023/01/14 01:27:30;;;;;;;3.33;0.90;;;;;;;6.77;75.25;99804.41;10500836;28;20048;-72
2023/01/14 01:32:31;;;;;;;3.05;0.77;;;;;;;6.93;74.12;99799.75;10481918;28;20520;-72
2023/01/14 01:37:34;;;;;;;4.38;0.93;;;;;;;6.93;73.47;99813.66;10482016;28;20080;-72
2023/01/14 01:42:54;;;;;;;2.38;0.75;;;;;;;6.88;73.13;99815.50;10500273;28;20040;-72
2023/01/14 01:48:37;;;;;;;4.65;0.90;;;;;;;6.91;72.76;99818.06;10483853;28;20056;-72
2023/01/14 01:53:42;;;;;;;3.72;1.02;;;;;;;6.95;72.49;99821.47;10487455;28;20066;-72
2023/01/14 01:58:44;;;;;;;2.67;0.80;;;;;;;6.87;72.73;99833.84;10495487;28;20044;-72
2023/01/14 02:03:48;;;;;;;3.33;0.80;;;;;;;6.96;72.38;99839.75;10513068;28;20036;-72
2023/01/14 02:08:52;;;;;;;3.08;0.90;;;;;;;6.89;72.19;99832.03;10497048;28;20062;-72
2023/01/14 02:14:05;;;;;;;2.05;0.60;;;;;;;6.91;71.73;99836.38;10514625;28;20124;-72
2023/01/14 02:19:14;;;;;;;2.70;0.73;;;;;;;6.99;70.99;99844.88;10495446;28;20154;-72
2023/01/14 02:24:52;;;;;;;3.40;0.90;;;;;;;6.98;70.68;99844.94;10513087;28;20037;-72
2023/01/14 02:30:06;;;;;;;5.80;1.10;;;;;;;6.96;70.99;99868.47;10497193;28;20054;-72
2023/01/14 02:35:37;;;;;;;4.20;1.00;;;;;;;6.88;70.70;99865.16;10495356;28;20101;-72
2023/01/14 02:41:08;;;;;;;2.92;0.88;;;;;;;6.97;70.52;99871.97;10479705;28;20045;-72
2023/01/14 02:46:17;;;;;;;4.18;1.10;;;;;;;7.04;69.62;99877.03;10468043;28;20055;-72
2023/01/14 02:51:23;;;;;;;3.85;0.80;;;;;;;6.99;69.60;99885.84;10497253;28;20140;-72
2023/01/14 02:56:26;;;;;;;2.33;0.88;;;;;;;6.93;70.16;99881.59;10515845;28;20052;-72
2023/01/14 03:01:48;;;;;;;4.47;0.88;;;;;;;6.83;70.33;99886.16;10499261;28;20116;-72
2023/01/14 03:07:00;;;;;;;2.05;0.63;;;;;;;6.95;69.32;99890.28;10510042;28;20040;-72
2023/01/14 03:12:10;;;;;;;2.80;0.85;;;;;;;6.88;69.58;99887.81;10488621;28;20060;-72
2023/01/14 03:17:27;;;;;;;4.50;0.77;;;;;;;6.70;70.33;99902.09;10475095;28;20041;-71
2023/01/14 03:22:31;;;;;;;4.47;0.82;;;;;;;6.75;69.79;99905.47;10488159;28;20108;-71
2023/01/14 03:27:36;;;;;;;4.88;0.90;;;;;;;6.75;69.71;99885.44;10489004;28;20082;-72
2023/01/14 03:32:55;;;;;;;4.30;1.33;;;;;;;6.62;70.32;99888.28;10488836;28;20056;-72
2023/01/14 03:38:06;;;;;;;3.33;1.15;;;;;;;6.66;70.32;99897.81;10505116;28;20048;-72
2023/01/14 03:43:23;;;;;;;3.50;1.00;;;;;;;6.58;70.85;99905.75;10505590;28;20040;-72
2023/01/14 03:48:25;;;;;;;1.67;0.60;;;;;;;6.61;71.13;99903.09;10503876;28;20059;-72
2023/01/14 03:53:37;;;;;;;3.42;0.70;;;;;;;6.68;71.00;99915.16;10502985;28;20401;-72
2023/01/14 03:58:50;;;;;;;4.70;0.90;;;;;;;6.58;71.74;99924.91;10504166;28;20086;-72
2023/01/14 04:03:53;;;;;;;2.47;0.65;;;;;;;6.60;71.54;99924.00;10483928;28;20051;-72
2023/01/14 04:08:56;;;;;;;3.55;0.90;;;;;;;6.58;71.51;99930.13;10501492;28;20040;-72
2023/01/14 04:19:18;;;;;;;2.80;0.90;;;;;;;6.53;72.30;99947.63;10516956;22;20040;-72
2023/01/14 04:24:20;;;;;;;4.00;0.95;;;;;;;6.66;71.48;99945.66;10468369;28;20528;-73
2023/01/14 04:29:21;;;;;;;4.00;1.00;;;;;;;6.71;71.36;99950.81;10503424;28;20482;-71
2023/01/14 04:34:23;;;;;;;4.90;1.30;;;;;;;6.83;70.63;99948.84;10504349;28;20086;-71
2023/01/14 04:39:25;;;;;;;4.00;0.98;;;;;;;6.77;70.84;99948.97;10486062;28;20120;-71
2023/01/14 04:44:27;;;;;;;5.40;1.17;;;;;;;6.73;71.00;99943.81;10503200;28;20040;-72
2023/01/14 04:49:28;;;;;;;4.55;1.10;;;;;;;6.58;72.01;99943.19;10502136;28;20052;-72
2023/01/14 04:54:30;;;;;;;4.15;0.80;;;;;;;6.58;72.04;99934.50;10483896;28;20091;-71
2023/01/14 04:59:35;;;;;;;3.47;1.08;;;;;;;6.55;72.29;99944.97;10501246;28;20041;-71
2023/01/14 05:04:37;;;;;;;4.82;1.52;;;;;;;6.45;72.24;99946.88;10483045;28;20476;-73
2023/01/14 05:09:38;;;;;;;4.80;1.38;;;;;;;6.53;71.86;99952.84;10500721;28;20504;-72
2023/01/14 05:14:40;;;;;;;4.90;1.20;;;;;;;6.52;71.52;99950.28;10500598;28;20033;-71
2023/01/14 05:19:42;;;;;;;7.38;1.40;;;;;;;6.46;72.12;99934.69;10500688;28;20139;-71
2023/01/14 05:24:44;;;;;;;3.95;1.00;;;;;;;6.47;71.85;99955.56;10466033;28;20418;-71
2023/01/14 05:29:45;;;;;;;5.28;1.35;;;;;;;6.43;71.94;99959.13;10481924;28;20049;-72
2023/01/14 05:34:47;;;;;;;7.57;1.42;;;;;;;6.55;71.35;99952.81;10500113;28;20047;-72
2023/01/14 05:39:49;;;;;;;8.73;1.45;;;;;;;6.45;71.66;99962.56;10500934;28;20072;-71
2023/01/14 05:50:13;;;;;;;3.75;0.85;;;;;;;6.48;71.15;99961.66;10442269;28;20059;-72
2023/01/14 05:55:15;;;;;;;6.78;1.27;;;;;;;6.46;71.29;99955.56;10499665;28;20049;-72
2023/01/14 06:10:59;;;;;;;4.45;1.30;;;;;;;6.32;71.51;99974.06;10500862;28;20099;-72
2023/01/14 06:16:06;;;;;;;3.55;1.00;;;;;;;6.47;70.76;99992.13;10499401;28;20044;-73
2023/01/14 06:21:10;;;;;;;7.43;1.25;;;;;;;6.42;70.96;99993.06;10498897;28;20102;-72
2023/01/14 06:26:18;;;;;;;5.60;1.45;;;;;;;6.52;70.31;99992.06;10481538;28;20048;-72
2023/01/14 06:31:20;;;;;;;4.97;1.17;;;;;;;6.32;71.42;99995.81;10499956;28;20036;-72
2023/01/14 06:36:23;;;;;;;4.95;0.82;;;;;;;6.16;72.10;100001.31;10499749;28;20114;-72
2023/01/14 06:41:25;;;;;;;2.63;0.95;;;;;;;6.21;71.56;99994.28;10485372;28;20490;-72
2023/01/14 06:46:29;;;;;;;3.58;1.00;;;;;;;5.99;72.55;99988.50;10506468;28;20086;-72
2023/01/14 06:51:32;;;;;;;5.18;1.15;;;;;;;6.02;72.41;99993.66;10507174;28;20043;-72
2023/01/14 06:56:34;;;;;;;5.72;1.10;;;;;;;6.06;72.11;99988.41;10488551;28;20424;-72
2023/01/14 07:01:36;;;;;;;5.18;1.15;;;;;;;5.94;71.94;99990.31;10488360;28;20406;-71
2023/01/14 07:06:38;;;;;;;5.47;1.65;;;;;;;6.10;70.91;99985.72;10505558;28;20056;-72
2023/01/14 07:11:41;;;;;;;6.97;1.40;;;;;;;6.00;71.42;99990.22;10488780;28;20437;-72
2023/01/14 07:16:43;;;;;;;6.90;1.20;;;;;;;6.03;70.90;99996.25;10506160;28;20118;-73
2023/01/14 07:21:44;;;;;;;5.07;1.15;;;;;;;6.05;70.58;99994.47;10505838;28;20509;-72
2023/01/14 07:26:46;;;;;;;3.05;0.80;;;;;;;5.95;71.02;99994.63;10504756;28;20062;-72
2023/01/14 07:31:48;;;;;;;3.80;0.90;;;;;;;6.00;70.98;100004.13;10504894;28;20052;-72
2023/01/14 07:36:50;;;;;;;4.57;1.33;;;;;;;5.89;71.38;99998.16;10470401;28;20102;-72
2023/01/14 07:41:51;;;;;;;3.63;1.08;;;;;;;5.99;70.79;99994.56;10505099;28;20205;-72
2023/01/14 07:46:55;;;;;;;4.00;1.23;;;;;;;5.71;72.97;100009.69;10487209;28;20106;-72
2023/01/14 07:51:57;;;;;;;5.30;1.20;;;;;;;5.60;73.39;99995.06;10485934;28;20043;-72
2023/01/14 07:56:59;;;;;;;4.07;1.00;;;;;;;5.76;72.87;100001.81;10486392;28;20504;-71
2023/01/14 08:02:01;;;;;;;4.85;1.70;;;;;;;5.77;72.77;100007.00;10503440;28;20040;-72
2023/01/14 08:07:07;;;;;;;8.13;1.70;;;;;;;5.75;72.84;100006.13;10468495;28;20052;-71
2023/01/14 08:12:09;;;;;;;5.57;1.30;;;;;;;5.99;71.79;100011.97;10502828;28;20051;-72
2023/01/14 08:17:11;;;;;;;5.90;2.05;;;;;;;6.20;70.84;100001.25;10503684;28;20049;-72
2023/01/14 08:22:12;;;;;;;4.07;1.27;;;;;;;6.20;70.68;99998.63;10502541;28;20128;-72
2023/01/14 08:27:14;;;;;;;4.90;1.50;;;;;;;6.29;69.82;99981.97;10484651;28;20507;-72
2023/01/14 08:32:16;;;;;;;5.85;1.42;;;;;;;6.25;70.09;99988.13;10502850;28;20098;-72
2023/01/14 08:37:18;;;;;;;4.68;1.55;;;;;;;6.11;71.19;99992.66;10502232;28;20075;-72
2023/01/14 08:42:20;;;;;;;4.18;1.38;;;;;;;6.39;68.71;99982.69;10483675;28;20151;-72
2023/01/14 08:47:22;;;;;;;7.05;1.98;;;;;;;6.48;68.55;99988.63;10484138;28;20040;-73
2023/01/14 08:52:24;;;;;;;4.35;1.63;;;;;;;6.56;68.16;99983.28;10501692;28;20145;-72
2023/01/14 08:57:28;;;;;;;6.35;1.35;;;;;;;6.46;69.06;99989.53;10500992;28;20068;-72
2023/01/14 09:02:31;;;;;;;4.20;1.70;;;;;;;6.58;67.40;99982.34;10482443;28;20402;-72
2023/01/14 09:18:13;;;;;;;5.47;1.70;;;;;;;6.88;66.26;99993.19;10483596;28;20456;-72
2023/01/14 09:23:15;;;;;;;7.88;1.40;;;;;;;7.04;64.79;99986.81;10501033;28;20037;-72
2023/01/14 09:28:17;;;;;;;6.55;1.38;;;;;;;7.28;64.38;99995.09;10500509;28;20052;-71
2023/01/14 09:33:18;;;;;;;4.50;1.40;;;;;;;7.37;63.92;99988.81;10476387;28;20056;-71
2023/01/14 09:38:20;;;;;;;6.88;1.50;;;;;;;7.17;64.90;99983.94;10476172;28;20056;-72
2023/01/14 09:43:23;;;;;;;4.40;1.67;;;;;;;7.41;63.96;99980.88;10483130;28;20036;-72
2023/01/14 09:48:27;;;;;;;10.13;1.75;;;;;;;7.73;62.29;99982.81;10499129;28;20041;-72
2023/01/14 09:53:56;;;;;;;7.35;1.40;;;;;;;7.68;60.22;99974.22;10460153;28;20132;-72
2023/01/14 09:59:06;;;;;;;5.55;1.55;;;;;;;7.58;61.24;99965.72;10457976;28;20068;-71
2023/01/14 10:04:48;;;;;;;6.70;1.90;;;;;;;7.52;62.19;99963.19;10440638;28;20132;-70
2023/01/14 10:09:58;;;;;;;5.70;1.80;;;;;;;7.76;61.84;99947.91;10457226;28;20041;-71
2023/01/14 10:15:18;;;;;;;5.30;1.38;;;;;;;7.89;61.48;99938.88;10461138;28;20043;-71
2023/01/14 10:20:26;;;;;;;4.78;1.40;;;;;;;8.04;59.83;99928.06;10448016;28;20045;-71
2023/01/14 10:25:28;;;;;;;;;;;;;;;8.10;58.39;99919.19;10494407;22;20392;-71
2023/01/14 10:30:35;;;;;;;8.85;1.73;;;;;;;8.05;57.43;99926.28;10506391;28;20377;-71
2023/01/14 10:35:39;;;;;;;;;;;;;;;7.96;57.74;99900.34;10506727;28;20037;-71
2023/01/14 10:40:41;;;;;;;4.53;1.25;;;;;;;8.03;57.70;99902.78;10506091;28;19924;-70
2023/01/14 10:45:43;;;;;;;6.07;1.77;;;;;;;8.06;56.99;99887.00;10507101;28;20040;-70
2023/01/14 10:50:44;;;;;;;4.80;1.58;;;;;;;8.12;57.02;99877.28;10506742;28;20555;-71
2023/01/14 10:56:03;;;;;;;4.03;1.27;;;;;;;7.95;56.80;99873.31;10507184;28;20541;-69
2023/01/14 11:01:07;;;;;;;4.78;1.20;;;;;;;8.25;56.88;99853.38;10507135;28;20062;-71
2023/01/14 11:06:12;;;;;;;6.15;1.45;;;;;;;8.39;55.21;99842.56;10507515;28;20561;-72
2023/01/14 11:11:19;;;;;;;5.55;1.23;;;;;;;8.43;55.38;99825.88;10506971;28;20041;-71
2023/01/14 11:16:21;;;;;;;5.88;1.70;;;;;;;8.74;54.25;99823.28;10506435;28;20083;-71
2023/01/14 11:21:25;;;;;;;4.72;1.65;;;;;;;9.10;52.59;99824.00;10505232;28;20041;-71
2023/01/14 11:26:28;;;;;;;6.78;1.35;;;;;;;9.29;52.56;99803.34;10503708;28;20494;-71
2023/01/14 11:31:35;;;;;;;7.88;1.30;;;;;;;9.21;52.71;99804.47;10504380;28;20041;-70
2023/01/14 11:36:37;;;;;;;4.95;1.20;;;;;;;9.12;53.38;99789.91;10487591;28;20493;-70
2023/01/14 11:41:39;;;;;;;5.18;1.77;;;;;;;9.01;54.31;99784.94;10505174;28;20467;-71
2023/01/14 11:46:44;;;;;;;4.55;1.30;;;;;;;9.19;53.30;99774.81;10506348;28;20048;-70
2023/01/14 11:52:04;;;;;;;5.72;1.48;;;;;;;9.37;52.80;99765.53;10502711;28;20045;-71
2023/01/14 11:57:15;;;;;;;5.28;1.42;;;;;;;9.18;53.66;99753.00;10505572;28;20487;-69
2023/01/14 12:02:35;;;;;;;4.78;1.30;;;;;;;8.94;54.22;99732.75;10504844;28;20037;-70
2023/01/14 12:07:43;;;;;;;6.85;1.55;;;;;;;9.02;54.49;99720.25;10486974;28;20097;-70
2023/01/14 12:18:09;;;;;;;4.68;1.15;;;;;;;8.72;54.51;99691.47;10503799;28;20075;-71
2023/01/14 12:23:17;;;;;;;5.55;1.40;;;;;;;8.77;54.50;99681.69;10484884;28;20059;-69
2023/01/14 12:28:30;;;;;;;4.32;1.60;;;;;;;8.66;54.66;99675.06;10502522;28;20045;-71
2023/01/14 12:33:42;;;;;;;4.60;1.20;;;;;;;8.74;54.16;99655.59;10484619;28;20045;-71
2023/01/14 12:50:13;;;;;;;6.95;1.40;;;;;;;8.61;56.53;99627.19;10501645;28;20044;-71
2023/01/14 12:55:30;;;;;;;7.93;1.55;;;;;;;8.68;56.51;99607.75;10500980;28;20401;-71
2023/01/14 13:00:35;;;;;;;6.97;1.50;;;;;;;8.51;57.61;99596.03;10500506;28;20048;-71
2023/01/14 13:05:42;;;;;;;6.63;1.77;;;;;;;8.56;56.61;99575.78;10501213;28;20340;-71
2023/01/14 13:10:45;;;;;;;;;;;;;;;8.55;56.16;99563.59;10501464;28;20055;-71
2023/01/14 13:16:23;;;;;;;4.72;1.05;;;;;;;8.42;56.28;99545.69;10501513;28;19920;-70
2023/01/14 13:21:56;;;;;;;4.47;1.20;;;;;;;8.35;57.77;99529.25;10482872;28;20413;-70
2023/01/14 13:27:22;;;;;;;5.78;1.40;;;;;;;8.42;57.13;99515.13;10495797;28;20075;-70
2023/01/14 13:32:49;;;;;;;4.67;1.13;;;;;;;8.39;58.03;99524.81;10500661;28;20036;-70
2023/01/14 13:37:52;;;;;;;7.90;1.23;;;;;;;8.42;58.53;99528.22;10500801;28;20048;-70
2023/01/14 13:42:58;;;;;;;5.15;1.67;;;;;;;8.46;59.46;99519.34;10500165;28;20098;-71
2023/01/14 13:48:11;;;;;;;6.75;1.33;;;;;;;8.49;59.90;99500.03;10499425;28;20049;-71
2023/01/14 13:53:15;;;;;;;3.20;1.15;;;;;;;8.59;58.91;99483.16;10499156;28;20032;-70
2023/01/14 13:58:21;;;;;;;11.02;1.95;;;;;;;8.51;61.03;99467.66;10500468;28;20094;-71
2023/01/14 14:03:41;;;;;;;8.25;2.05;;;;;;;8.45;61.99;99446.91;10481808;28;20036;-71
2023/01/14 14:08:49;;;;;;;4.95;1.55;;;;;;;8.45;62.28;99436.41;10499762;28;20045;-71
2023/01/14 14:14:07;;;;;;;5.35;1.45;;;;;;;8.32;62.02;99422.84;10499125;28;20102;-70
2023/01/14 14:19:08;;;;;;;5.65;1.75;;;;;;;8.44;61.30;99407.66;10500295;28;20535;-70
2023/01/14 14:24:23;;;;;;;5.78;1.25;;;;;;;8.31;61.68;99401.94;10498305;28;20136;-70
2023/01/14 14:29:26;;;;;;;5.75;1.65;;;;;;;8.16;62.56;99384.97;10499041;28;20065;-70
2023/01/14 14:34:28;;;;;;;5.70;1.50;;;;;;;8.23;61.80;99372.53;10499205;28;20462;-71
2023/01/14 14:39:32;;;;;;;3.95;1.50;;;;;;;8.36;61.05;99358.13;10481533;28;20060;-71
2023/01/14 14:44:34;;;;;;;4.70;1.20;;;;;;;8.25;61.96;99342.78;10498500;28;20045;-71
2023/01/14 14:49:36;;;;;;;4.85;1.55;;;;;;;8.21;62.29;99340.31;10481019;28;20119;-71
2023/01/14 14:54:38;;;;;;;5.05;1.38;;;;;;;8.18;63.30;99336.03;10498971;28;20059;-71
2023/01/14 14:59:40;;;;;;;7.63;1.20;;;;;;;8.31;62.93;99312.91;10480343;28;20051;-71
2023/01/14 15:04:44;;;;;;;4.25;1.35;;;;;;;8.31;63.21;99312.91;10489007;28;20041;-70
2023/01/14 15:09:47;;;;;;;5.40;1.30;;;;;;;8.30;62.87;99306.81;10505752;28;20044;-70
2023/01/14 15:15:01;;;;;;;6.47;1.40;;;;;;;8.25;63.21;99300.03;10505810;28;20036;-71
2023/01/14 15:20:03;;;;;;;4.88;1.55;;;;;;;8.20;63.14;99291.50;10505557;28;20037;-71
2023/01/14 15:25:15;;;;;;;5.55;1.67;;;;;;;8.33;62.87;99295.41;10506934;28;20037;-71
2023/01/14 15:30:22;;;;;;;5.13;1.10;;;;;;;8.13;63.82;99285.59;10505792;28;20044;-70
2023/01/14 15:35:28;;;;;;;4.38;1.35;;;;;;;8.24;63.04;99272.16;10505212;28;20044;-71
2023/01/14 15:40:41;;;;;;;4.63;1.73;;;;;;;8.11;63.86;99276.09;10504557;28;20343;-70
2023/01/14 15:45:48;;;;;;;5.22;1.25;;;;;;;8.14;64.09;99273.34;10490024;28;20123;-70
2023/01/14 15:51:02;;;;;;;3.53;1.00;;;;;;;8.23;63.44;99270.41;10504456;28;20055;-69
2023/01/14 15:56:06;;;;;;;3.75;1.38;;;;;;;8.22;64.09;99263.47;10486032;28;20513;-70
2023/01/14 16:01:22;;;;;;;4.03;1.40;;;;;;;8.35;63.69;99264.75;10503776;28;20489;-70
2023/01/14 16:06:31;;;;;;;5.88;1.20;;;;;;;8.34;63.75;99263.06;10504198;28;20037;-72
2023/01/14 16:11:38;;;;;;;3.13;0.98;;;;;;;8.28;64.20;99264.13;10504372;28;20076;-72
2023/01/14 16:16:40;;;;;;;;;;;;;;;8.50;64.93;99261.66;10504870;28;20052;-72
2023/01/14 16:21:42;;;;;;;2.83;1.23;;;;;;;8.21;68.65;99261.78;10503199;28;19924;-73
2023/01/14 16:26:44;;;;;;;5.43;1.63;;;;;;;8.03;70.79;99261.50;10515318;22;20398;-72
2023/01/14 16:31:46;;;;;;;3.70;1.98;;;;;;;7.87;74.52;99238.50;10484548;28;20060;-71
2023/01/14 16:36:48;;;;;;;5.00;2.67;;;;;;;7.73;77.16;99216.28;10502771;28;20045;-72
2023/01/14 16:41:49;;;;;;;3.53;1.38;;;;;;;7.80;76.33;99167.22;10501960;28;20103;-72
2023/01/14 16:46:51;;;;;;;3.88;2.60;;;;;;;7.84;74.53;99148.75;10484111;28;20089;-71
2023/01/14 16:51:56;;;;;;;5.68;3.63;;;;;;;7.82;73.67;99134.84;10501872;28;20036;-71
2023/01/14 16:56:57;;;;;;;6.07;3.55;;;;;;;7.84;73.22;99140.91;10501458;28;20123;-72
2023/01/14 17:01:59;;;;;;;5.03;2.13;;;;;;;7.77;73.37;99128.09;10482257;28;20398;-72
2023/01/14 17:07:01;;;;;;;5.35;1.63;;;;;;;7.84;72.75;99117.34;10500179;28;20045;-71
2023/01/14 17:17:24;;;;;;;3.55;1.35;;;;;;;8.35;67.65;99086.69;10499607;28;20040;-73
2023/01/14 17:22:26;;;;;;;3.45;1.30;;;;;;;8.40;67.58;99082.16;10480406;28;20048;-73
2023/01/14 17:27:28;;;;;;;3.20;1.42;;;;;;;8.33;68.64;99084.16;10477195;28;20094;-74
2023/01/14 17:32:30;;;;;;;3.25;1.58;;;;;;;8.38;67.59;99083.16;10496655;28;20043;-72
2023/01/14 17:37:34;;;;;;;3.60;1.23;;;;;;;8.18;69.16;99082.09;10498735;28;20082;-72
2023/01/14 17:42:36;;;;;;;3.22;1.20;;;;;;;8.25;68.82;99073.09;10463589;28;20064;-72
2023/01/14 17:47:38;;;;;;;2.58;1.20;;;;;;;8.13;69.33;99076.19;10481784;28;20074;-71
2023/01/14 17:52:42;;;;;;;2.75;1.23;;;;;;;8.22;68.63;99064.50;10482098;28;20045;-73
2023/01/14 17:57:44;;;;;;;3.90;1.30;;;;;;;8.06;70.41;99044.16;10482128;28;20054;-72
2023/01/14 18:02:46;;;;;;;4.18;1.33;;;;;;;8.17;70.76;99038.50;10500050;28;20494;-73
2023/01/14 18:07:50;;;;;;;7.70;1.75;;;;;;;8.05;72.77;99021.50;10482626;28;20045;-73
2023/01/14 18:12:52;;;;;;;2.95;1.50;;;;;;;7.91;73.53;99005.47;10482380;28;20102;-73
2023/01/14 18:17:54;;;;;;;3.50;1.20;;;;;;;7.79;73.78;99013.75;10499277;28;20076;-73
2023/01/14 18:22:59;;;;;;;12.27;6.13;;;;;;;7.90;74.95;98998.53;10481820;28;20090;-70
2023/01/14 18:28:01;;;;;;;4.18;1.30;;;;;;;7.77;74.05;98985.03;10482797;28;20116;-73
2023/01/14 18:33:04;;;;;;;3.55;1.38;;;;;;;7.66;76.10;98979.38;10500482;28;20045;-72
2023/01/14 18:38:06;;;;;;;3.05;1.10;;;;;;;7.74;76.70;98958.13;10505905;28;20410;-72
2023/01/14 18:43:08;;;;;;;5.07;1.10;;;;;;;7.62;78.96;98950.78;10489453;28;20041;-72
2023/01/14 18:48:10;;;;;;;2.80;1.20;;;;;;;7.61;80.05;98925.50;10507823;28;20094;-72
2023/01/14 18:53:12;;;;;;;3.97;1.40;;;;;;;7.36;82.82;98926.44;10507292;28;20199;-71
2023/01/14 18:58:14;;;;;;;3.47;1.20;;;;;;;7.29;83.75;98909.25;10489104;28;20102;-72
2023/01/14 19:03:16;;;;;;;4.03;0.93;;;;;;;7.28;85.28;98903.16;10507286;28;20482;-72
2023/01/14 19:08:18;;;;;;;2.53;1.10;;;;;;;7.24;87.72;98885.91;10506820;28;20040;-73
2023/01/14 19:13:19;;;;;;;3.05;1.20;;;;;;;7.22;87.29;98884.25;10470923;28;20478;-72
2023/01/14 19:18:23;;;;;;;3.25;1.33;;;;;;;7.27;87.05;98877.94;10505589;28;20068;-72
2023/01/14 19:23:25;;;;;;;4.53;2.03;;;;;;;7.27;88.67;98871.88;10470115;28;20080;-72
2023/01/14 19:28:27;;;;;;;3.85;1.55;;;;;;;7.35;86.10;98869.84;10505543;28;20413;-72
2023/01/14 19:33:29;;;;;;;1.88;1.23;;;;;;;7.37;86.61;98862.78;10471077;28;20136;-72
2023/01/14 19:38:32;;;;;;;2.60;1.10;;;;;;;7.34;86.86;98844.56;10486970;28;20458;-72
2023/01/14 19:43:35;;;;;;;3.65;1.20;;;;;;;7.42;86.86;98846.91;10470043;28;20494;-71
2023/01/14 19:48:38;;;;;;;1.83;1.00;;;;;;;7.56;86.17;98826.31;10486075;28;20059;-72
2023/01/14 19:53:40;;;;;;;2.50;1.13;;;;;;;7.51;86.96;98826.50;10489867;28;20037;-71
2023/01/14 19:58:42;;;;;;;2.95;1.05;;;;;;;7.58;86.30;98808.81;10473542;28;20471;-72
2023/01/14 20:03:48;;;;;;;1.92;0.70;;;;;;;7.50;87.83;98796.03;10472669;28;20147;-71
2023/01/14 20:08:51;;;;;;;2.28;0.77;;;;;;;7.34;88.39;98795.75;10479108;28;20041;-72
2023/01/14 20:13:55;;;;;;;1.50;0.90;;;;;;;7.36;88.50;98782.66;10428341;28;20049;-73
2023/01/14 20:18:57;;;;;;;2.60;0.93;;;;;;;7.38;88.46;98765.13;10501907;28;20078;-71
2023/01/14 20:23:59;;;;;;;3.30;1.27;;;;;;;7.37;90.40;98765.19;10485365;28;20052;-73
2023/01/14 20:29:01;;;;;;;2.30;0.95;;;;;;;7.36;89.89;98751.28;10503285;28;20116;-73
2023/01/14 20:34:06;;;;;;;1.70;0.90;;;;;;;7.40;89.35;98747.63;10485403;28;20037;-71
2023/01/14 20:39:08;;;;;;;1.73;0.70;;;;;;;7.42;91.02;98748.41;10504211;28;20522;-71
2023/01/14 20:44:54;;;;;;;1.05;0.60;;;;;;;7.43;90.23;98716.13;10471735;28;20045;-73
2023/01/14 20:49:32;;;;;;;1.00;0.60;;;;;;;7.60;88.80;98702.38;10487217;28;20070;-72
2023/01/14 20:54:34;;;;;;;0.98;0.50;;;;;;;7.78;87.09;98700.75;10471008;28;20076;-72
2023/01/14 20:59:36;;;;;;;2.08;0.60;;;;;;;7.84;87.24;98703.97;10484868;28;20048;-71
2023/01/14 21:04:39;;;;;;;0.63;0.50;;;;;;;7.91;86.24;98698.47;10484278;28;20044;-72
2023/01/14 21:09:47;;;;;;;0.90;0.50;;;;;;;7.87;88.29;98699.53;10502717;28;20040;-71
2023/01/14 21:25:36;;;;;;;0.80;0.50;;;;;;;7.83;89.56;98688.34;10500753;28;20043;-72
2023/01/14 21:30:40;;;;;;;0.45;0.40;;;;;;;7.77;90.82;98678.13;10502578;28;20207;-72
2023/01/14 21:35:42;;;;;;;1.02;0.60;;;;;;;7.88;89.39;98670.69;10502132;28;20082;-72
2023/01/14 21:43:24;;;;;;;0.60;0.40;;;;;;;7.87;88.64;98673.38;10483543;28;20048;-72
2023/01/14 21:46:07;;;;;;;0.93;0.40;;;;;;;8.09;87.18;98658.44;10501173;28;20048;-72
2023/01/14 21:51:13;;;;;;;1.02;0.50;;;;;;;8.13;85.80;98660.00;10483530;28;20510;-71
2023/01/14 21:56:17;;;;;;;0.70;0.40;;;;;;;8.25;85.63;98645.53;10483892;28;20052;-71
2023/01/14 22:01:19;;;;;;;1.10;0.60;;;;;;;8.25;85.79;98616.75;10500779;28;20508;-71
2023/01/14 22:06:21;;;;;;;0.43;0.43;;;;;;;8.32;84.71;98610.28;10482584;28;20091;-70
2023/01/14 22:11:23;;;;;;;0.70;0.47;;;;;;;8.38;84.51;98609.22;10504703;28;20067;-71
2023/01/14 22:16:26;;;;;;;0.70;0.50;;;;;;;8.50;83.39;98603.41;10508070;28;20044;-70
2023/01/14 22:21:28;;;;;;;0.73;0.45;;;;;;;8.49;83.66;98594.69;10489543;28;20448;-70
2023/01/14 22:26:30;;;;;;;1.00;0.40;;;;;;;8.48;83.83;98603.47;10477602;22;20045;-71
2023/01/14 22:31:31;;;;;;;0.82;0.50;;;;;;;8.53;84.14;98601.50;10423388;28;20049;-70
2023/01/14 22:36:33;;;;;;;1.45;0.40;;;;;;;8.54;84.43;98597.09;10424814;28;20041;-70
2023/01/14 22:41:35;;;;;;;0.40;0.40;;;;;;;8.50;84.93;98574.59;10425196;28;20265;-71
2023/01/14 22:46:37;;;;;;;0.98;0.47;;;;;;;8.57;83.68;98582.09;10423877;28;20084;-70
2023/01/14 22:51:38;;;;;;;0.65;0.38;;;;;;;8.70;82.65;98582.38;10424592;28;20406;-70
2023/01/14 22:56:40;;;;;;;3.03;0.40;;;;;;;8.83;82.48;98570.38;10423887;28;20124;-70
2023/01/14 23:01:42;;;;;;;0.63;0.40;;;;;;;8.81;82.74;98561.78;10423818;28;20087;-70
2023/01/14 23:06:44;;;;;;;0.73;0.40;;;;;;;8.91;82.94;98554.31;10425653;28;20099;-70
2023/01/14 23:11:47;;;;;;;0.60;0.35;;;;;;;8.91;83.18;98551.69;10422070;28;20069;-70
2023/01/14 23:27:31;;;;;;;0.35;0.20;;;;;;;9.00;83.92;98529.41;10423628;28;20044;-70
2023/01/14 23:32:33;;;;;;;0.10;0.10;;;;;;;9.06;83.53;98519.47;10422779;28;20051;-70
2023/01/14 23:37:34;;;;;;;0.73;0.10;;;;;;;9.24;81.89;98512.44;10422772;28;20038;-71
2023/01/14 23:42:36;;;;;;;0.45;0.25;;;;;;;9.38;80.68;98503.88;10423374;28;20470;-70
2023/01/14 23:47:43;;;;;;;0.10;0.10;;;;;;;9.54;79.42;98506.56;10422067;28;20439;-71
2023/01/14 23:52:45;;;;;;;0.10;0.10;;;;;;;9.66;78.26;98500.69;10421996;28;20052;-71
2023/01/14 23:57:47;;;;;;;0.13;0.13;;;;;;;9.67;78.31;98491.88;10423008;28;20471;-71
